Terminal Aerodrome Forecast
Issued by NWS Cheyenne, WY

Current Version | Previous Version | Text Only | Print | Product List | Glossary On
Versions: 1 2 3 4 5 6 7 8 9 10 11 12 13 14 15 16 17 18 19 20 21 22 23 24 25 26 27 28 29 30 31 32 33 34
000
FTUS45 KCYS 221722
TAFCYS
TAF
KCYS 221722Z 2218/2318 31015G22KT P6SM SCT060
     FM222300 01009KT P6SM VCSH BKN050
     FM230200 01008KT P6SM -RASN SCT030 OVC050
     FM230500 04007KT 4SM -SN BR OVC015=

USA.gov is the U.S. government's official web portal to all federal, state and local government web resources and services.